Latest Weather Observations for Mareeba

IDQ60801

Issued at 10:02 pm EST Monday 26 January 2015 (issued every 30 minutes, with the page automatically refreshed every 10 minutes)

About weather observations | Map of weather stations | Latest weather observations for QLD | Other Formats
Station Details ID: 031210 Name: MAREEBA AIRPORT Lat: -17.07 Lon: 145.43 Height: 471.93 m
Data from the previous 72 hours. | See also: Recent months at Mareeba
Date/Time
EST
Temp
°C
App
Temp
°C
Dew
Point
Rel
Hum
%
Delta-T
°C
Wind Press
QNH
hPa
Press
MSL
hPa
Rain
since 9 am
mm
Dir
 
Spd
km/h
Gust
km/h
Spd
kts
Gust
kts
26/10:00pm 22.3 23.9 21.5 95 0.5 S 15 22 8 12 1010.6 - 19.2
26/09:30pm 22.2 23.0 21.4 95 0.5 S 19 20 10 11 1010.4 - 12.8
26/09:00pm 22.4 22.0 20.9 91 1.0 SSE 24 33 13 18 1009.2 1006.0 5.4
26/08:30pm 23.3 23.4 20.4 84 1.9 S 20 39 11 21 1008.8 - 0.2
26/08:00pm 26.4 26.2 19.8 67 4.4 SSE 20 35 11 19 1007.9 - 0.2
26/07:30pm 28.7 30.7 20.7 62 5.4 SSE 11 20 6 11 1007.3 - 0.2
26/07:00pm 29.5 32.2 21.4 61 5.5 N 9 15 5 8 1006.4 - 0.2
26/06:30pm 30.3 32.4 21.7 60 5.9 N 13 20 7 11 1005.7 - 0.2
26/06:00pm 31.3 33.3 21.5 56 6.7 N 13 20 7 11 1005.4 1002.2 0.2
26/05:30pm 33.7 35.2 19.7 43 9.4 W 11 17 6 9 1005.3 - 0.2
26/05:00pm 33.3 34.4 19.7 44 9.1 WNW 13 20 7 11 1005.3 - 0.2
26/04:30pm 33.1 34.0 19.2 43 9.3 W 13 22 7 12 1005.2 - 0.2
26/04:00pm 32.3 32.2 18.8 44 8.9 W 17 26 9 14 1005.5 - 0.2
26/03:30pm 32.0 33.4 20.3 50 7.9 WSW 13 22 7 12 1006.0 - 0.2
26/03:00pm 32.4 33.4 20.3 48 8.2 W 15 24 8 13 1006.2 1003.0 0.2
26/02:30pm 32.0 32.1 19.9 48 8.1 W 19 32 10 17 1006.9 - 0.2
26/02:00pm 31.8 32.1 20.4 51 7.7 W 19 26 10 14 1007.3 - 0.2
26/01:30pm 31.8 31.3 20.7 51 7.5 W 24 30 13 16 1007.7 - 0.2
26/01:00pm 30.9 30.4 20.8 55 6.8 W 24 35 13 19 1008.3 - 0.2
26/12:30pm 31.0 31.5 22.0 58 6.2 WNW 22 32 12 17 1008.7 - 0.2
26/12:00pm 30.5 31.8 22.7 63 5.4 WNW 20 33 11 18 1009.2 1006.0 0.2
26/11:30am 29.7 30.0 21.6 61 5.5 WNW 22 33 12 18 1009.5 - 0.2
26/11:00am 28.8 28.6 21.3 64 5.1 WNW 24 33 13 18 1010.2 - 0.2
26/10:30am 28.6 29.9 22.6 70 4.1 W 20 28 11 15 1010.5 - 0.2
26/10:00am 28.2 30.1 22.7 72 3.8 W 17 26 9 14 1010.5 - 0.0
26/09:30am 27.0 28.3 21.7 73 3.6 W 17 24 9 13 1010.5 - 0.0
26/09:00am 26.4 28.9 22.5 79 2.7 WNW 13 19 7 10 1010.4 1007.2 13.4
26/08:30am 25.8 28.8 22.7 83 2.1 WNW 11 17 6 9 1010.6 - 13.4
26/08:00am 25.1 28.1 22.6 86 1.7 NNW 11 15 6 8 1010.6 - 13.4
26/07:30am 24.9 28.8 22.6 87 1.6 WNW 6 9 3 5 1010.7 - 13.4
26/07:00am 24.0 28.9 23.0 94 0.7 S 2 7 1 4 1011.1 - 13.4
26/06:30am 23.4 28.5 22.6 95 0.5 CALM 0 6 0 3 1011.0 - 13.4
26/06:00am 23.5 28.5 22.5 94 0.7 CALM 0 0 0 0 1010.7 1007.6 13.4
26/05:30am 23.8 29.0 22.9 95 0.6 CALM 0 0 0 0 1010.7 - 13.4
26/05:00am 23.6 28.8 22.8 95 0.5 CALM 0 0 0 0 1010.4 - 13.4
26/04:30am 23.6 27.6 22.8 95 0.5 WSW 6 7 3 4 1010.1 - 13.4
26/04:00am 23.4 27.2 22.7 96 0.5 SSE 7 9 4 5 1010.2 - 13.4
26/03:30am 23.5 28.6 22.7 95 0.5 CALM 0 6 0 3 1010.0 - 13.4
26/03:00am 23.3 28.2 22.3 94 0.7 CALM 0 0 0 0 1010.0 1006.8 13.4
26/02:30am 23.1 28.0 22.4 96 0.5 CALM 0 0 0 0 1010.1 - 13.4
26/02:00am 22.9 26.6 22.2 96 0.5 NNW 6 9 3 5 1010.0 - 13.4
26/01:30am 22.7 27.0 22.0 96 0.5 S 2 7 1 4 1010.0 - 13.4
26/01:00am 22.8 27.5 22.0 95 0.5 CALM 0 0 0 0 1010.1 - 13.4
26/12:30am 22.9 26.5 22.1 95 0.5 WNW 6 7 3 4 1011.0 - 13.4
26/12:00am 23.1 28.0 22.3 95 0.5 CALM 0 0 0 0 1011.5 1008.3 13.4
 
Date/Time
EST
Temp
°C
App
Temp
°C
Dew
Point
Rel
Hum
%
Delta-T
°C
Wind Press
QNH
hPa
Press
MSL
hPa
Rain
since 9 am
mm
Dir
 
Spd
km/h
Gust
km/h
Spd
kts
Gust
kts
25/11:30pm 23.0 27.8 22.2 95 0.5 CALM 0 0 0 0 1011.9 - 13.4
25/11:00pm 23.0 26.4 22.0 94 0.7 ESE 7 9 4 5 1012.0 - 13.4
25/10:30pm 23.0 26.2 21.6 92 0.9 ESE 7 9 4 5 1012.1 - 13.4
25/10:00pm 22.9 27.3 21.4 91 1.0 CALM 0 0 0 0 1012.0 - 13.4
25/09:30pm 22.8 26.8 21.4 92 0.9 N 2 13 1 7 1011.4 - 13.2
25/09:00pm 22.7 25.9 21.2 91 1.0 S 6 9 3 5 1011.1 1007.9 13.2
25/08:30pm 22.5 25.0 21.1 92 0.9 SSE 9 13 5 7 1010.6 - 12.8
25/08:00pm 22.9 25.3 21.5 92 0.9 ESE 11 13 6 7 1010.6 - 12.0
25/07:30pm 23.0 24.8 21.8 93 0.8 SW 15 24 8 13 1010.7 - 11.8
25/07:00pm 23.8 22.6 22.6 93 0.8 WNW 33 43 18 23 1011.1 - 7.4
25/06:30pm 23.6 24.2 21.3 87 1.5 NNW 20 30 11 16 1009.6 - 3.6
25/06:18pm 24.1 22.4 20.6 81 2.3 NNW 30 54 16 29 1008.8 - 2.6
25/06:12pm 28.7 25.3 19.9 59 5.9 WNW 37 52 20 28 1008.7 - 0.0
25/06:00pm 31.1 32.6 19.8 51 7.6 WNW 11 15 6 8 1008.0 1004.8 0.0
25/05:30pm 31.5 32.7 19.8 49 7.8 WNW 13 19 7 10 1007.5 - 0.0
25/05:00pm 32.3 32.4 19.9 48 8.3 W 19 26 10 14 1007.3 - 0.0
25/04:30pm 32.8 32.6 19.3 45 9.0 W 19 26 10 14 1007.3 - 0.0
25/04:00pm 32.9 33.1 20.1 47 8.6 W 19 26 10 14 1007.4 - 0.0
25/03:30pm 32.9 32.6 20.4 47 8.5 W 22 30 12 16 1008.0 - 0.0
25/03:00pm 32.5 34.2 21.0 50 7.9 WNW 13 24 7 13 1008.3 1005.1 0.0
25/02:30pm 32.0 32.1 19.9 48 8.1 W 19 32 10 17 1008.8 - 0.0
25/02:00pm 32.1 32.2 20.4 50 7.9 W 20 32 11 17 1009.1 - 0.0
25/01:30pm 31.1 32.8 21.6 57 6.5 W 15 24 8 13 1009.7 - 0.0
25/01:00pm 30.9 31.5 21.1 56 6.7 W 19 33 10 18 1010.1 - 0.0
25/12:30pm 30.4 31.3 21.5 59 6.1 W 19 32 10 17 1010.6 - 0.0
25/12:00pm 30.1 29.7 20.9 57 6.2 WNW 24 43 13 23 1011.1 1007.9 0.0
25/11:30am 29.2 30.2 21.7 64 5.1 WNW 19 28 10 15 1011.5 - 0.0
25/11:00am 27.7 28.6 20.8 66 4.6 WNW 17 26 9 14 1012.1 - 0.0
25/10:30am 26.6 28.4 21.8 75 3.3 W 15 20 8 11 1012.5 - 0.0
25/10:00am 26.7 29.1 22.3 77 3.0 W 13 19 7 10 1012.9 - 0.0
25/09:30am 25.6 27.4 21.9 80 2.5 W 15 20 8 11 1013.1 - 0.0
25/09:00am 25.0 26.9 22.1 84 2.0 W 15 20 8 11 1013.1 1009.9 37.6
25/08:30am 24.6 27.4 22.3 87 1.6 W 11 15 6 8 1012.6 - 37.6
25/08:00am 24.1 26.7 22.0 88 1.4 W 11 17 6 9 1012.4 - 37.6
25/07:30am 23.8 27.5 22.6 93 0.8 W 7 11 4 6 1012.3 - 37.6
25/07:00am 23.2 27.9 22.7 97 0.3 W 2 6 1 3 1012.4 - 37.6
25/06:30am 22.8 27.1 22.6 99 0.1 S 4 9 2 5 1012.0 - 37.6
25/06:00am 22.5 27.3 22.2 98 0.2 CALM 0 0 0 0 1011.8 1008.6 37.6
25/05:30am 22.7 27.5 22.2 97 0.3 CALM 0 0 0 0 1011.5 - 37.6
25/05:00am 22.9 28.0 22.6 98 0.2 CALM 0 0 0 0 1011.1 - 37.6
25/04:30am 23.0 28.0 22.5 97 0.3 CALM 0 0 0 0 1011.2 - 37.6
25/04:00am 23.1 28.2 22.6 97 0.3 CALM 0 0 0 0 1011.2 - 37.6
25/03:30am 23.0 28.0 22.5 97 0.3 CALM 0 0 0 0 1011.0 - 37.4
25/03:00am 23.1 28.0 22.4 96 0.5 CALM 0 7 0 4 1011.1 1007.9 37.2
25/02:30am 23.2 27.9 22.7 97 0.3 SSE 2 7 1 4 1011.1 - 37.0
25/02:00am 23.0 27.2 22.5 97 0.3 SE 4 6 2 3 1011.2 - 36.8
25/01:30am 23.1 28.2 22.6 97 0.3 CALM 0 0 0 0 1011.5 - 36.6
25/01:00am 22.7 27.6 22.4 98 0.2 CALM 0 0 0 0 1011.8 - 36.4
25/12:30am 22.5 27.0 22.3 99 0.1 SE 2 7 1 4 1012.2 - 36.4
25/12:00am 22.3 25.9 22.0 98 0.2 ESE 6 7 3 4 1012.6 1009.5 36.0
 
Date/Time
EST
Temp
°C
App
Temp
°C
Dew
Point
Rel
Hum
%
Delta-T
°C
Wind Press
QNH
hPa
Press
MSL
hPa
Rain
since 9 am
mm
Dir
 
Spd
km/h
Gust
km/h
Spd
kts
Gust
kts
24/11:30pm 22.1 25.4 21.9 99 0.1 SE 7 11 4 6 1012.8 - 35.8
24/11:00pm 22.0 24.9 21.7 98 0.2 ESE 9 11 5 6 1013.1 - 35.6
24/10:30pm 22.1 25.4 21.8 98 0.2 SSE 7 11 4 6 1013.2 - 35.4
24/10:00pm 21.9 26.1 20.9 94 0.7 CALM 0 6 0 3 1013.4 - 26.8
24/09:30pm 22.3 26.4 21.5 95 0.5 S 2 7 1 4 1012.5 - 21.8
24/09:00pm 22.4 25.8 21.6 95 0.5 SSE 6 7 3 4 1012.1 1008.9 21.2
24/08:30pm 22.4 26.4 21.4 94 0.7 SSW 2 9 1 5 1012.1 - 20.0
24/08:00pm 22.4 24.1 21.6 95 0.5 SE 15 20 8 11 1011.8 - 18.8
24/07:30pm 22.4 20.5 20.1 87 1.5 NNW 30 54 16 29 1011.8 - 9.8
24/07:27pm 22.5 21.0 20.2 87 1.5 NNW 28 54 15 29 1011.5 - 4.4
24/07:25pm 22.6 21.0 19.2 81 2.2 NW 26 54 14 29 1011.4 - 2.4
24/07:00pm 27.7 30.6 21.7 70 4.1 N 9 15 5 8 1010.2 - 0.0
24/06:30pm 28.2 31.4 21.7 68 4.4 N 7 9 4 5 1009.7 - 0.0
24/06:00pm 28.6 31.9 21.4 65 4.9 NNE 6 7 3 4 1008.3 1005.1 0.0
24/05:30pm 28.4 31.1 21.4 66 4.8 NNE 9 15 5 8 1008.3 - 0.0
24/05:00pm 27.7 30.0 21.3 68 4.3 N 11 15 6 8 1008.4 - 0.0
24/04:30pm 27.9 30.2 22.1 70 4.0 N 13 19 7 10 1007.9 - 0.0
24/04:00pm 29.6 31.4 21.8 63 5.3 N 15 24 8 13 1007.6 - 0.0
24/03:30pm 30.0 31.8 21.1 59 6.0 N 13 20 7 11 1007.4 - 0.0
24/03:00pm 30.1 31.9 20.4 56 6.5 N 11 17 6 9 1007.7 1004.5 0.0
24/02:30pm 31.9 32.0 19.2 47 8.5 W 17 26 9 14 1008.0 - 0.0
24/02:00pm 32.1 32.5 19.0 45 8.7 W 15 24 8 13 1008.4 - 0.0
24/01:30pm 31.5 31.8 19.5 49 8.0 WNW 17 28 9 15 1009.0 - 0.0
24/01:00pm 31.3 31.6 20.3 52 7.4 W 19 28 10 15 1009.3 - 0.0
24/12:30pm 30.9 32.0 20.5 54 7.0 W 15 24 8 13 1009.7 - 0.0
24/12:00pm 30.1 30.8 20.4 56 6.5 W 17 22 9 12 1010.0 1006.8 0.0
24/11:30am 30.0 31.0 21.1 59 6.0 W 17 24 9 13 1010.2 - 0.0
24/11:00am 28.6 30.1 20.6 62 5.4 W 13 20 7 11 1010.3 - 0.0
24/10:30am 27.8 29.2 20.4 64 5.0 WNW 13 22 7 12 1011.0 - 0.0
24/10:00am 27.4 28.9 20.5 66 4.6 W 13 20 7 11 1010.9 - 0.0
24/09:30am 27.0 29.3 21.3 71 3.9 W 11 19 6 10 1011.1 - 0.0
24/09:00am 26.8 29.2 20.9 70 4.0 WSW 9 15 5 8 1011.0 1007.8 6.0
24/08:30am 26.3 28.8 21.1 73 3.5 WNW 9 13 5 7 1010.9 - 6.0
24/08:00am 25.4 29.3 21.9 81 2.4 NNW 4 7 2 4 1010.5 - 6.0
24/07:30am 24.7 29.4 22.0 85 1.8 CALM 0 0 0 0 1010.2 - 6.0
24/07:00am 24.2 28.9 21.9 87 1.6 CALM 0 0 0 0 1010.1 - 6.0
24/06:30am 24.0 27.5 21.9 88 1.4 SE 6 7 3 4 1009.6 - 6.0
24/06:00am 23.9 28.5 21.8 88 1.4 CALM 0 0 0 0 1009.2 1006.0 6.0
24/05:30am 24.1 28.8 22.0 88 1.4 CALM 0 0 0 0 1009.3 - 6.0
24/05:00am 24.3 27.5 21.6 85 1.8 W 7 11 4 6 1008.9 - 6.0
24/04:30am 24.6 27.0 21.5 83 2.1 WNW 11 15 6 8 1008.4 - 6.0
24/04:00am 24.6 26.9 22.1 86 1.7 W 13 17 7 9 1008.1 - 6.0
24/03:30am 24.4 28.0 22.3 88 1.4 W 7 11 4 6 1008.2 - 6.0
24/03:00am 24.4 27.6 22.3 88 1.4 W 9 11 5 6 1008.0 1004.8 6.0
24/02:30am 24.5 28.4 22.6 89 1.3 SSW 6 17 3 9 1008.1 - 6.0
24/02:00am 24.2 29.2 22.5 90 1.2 CALM 0 0 0 0 1008.1 - 6.0
24/01:30am 24.0 28.6 22.4 91 1.1 SE 2 6 1 3 1008.3 - 6.0
24/01:00am 24.0 27.2 22.4 91 1.1 S 9 11 5 6 1008.5 - 6.0
24/12:30am 24.1 27.9 22.4 90 1.2 WSW 6 7 3 4 1008.5 - 6.0
24/12:00am 24.3 28.4 22.2 88 1.4 ESE 4 7 2 4 1009.3 1006.1 6.0
 
Date/Time
EST
Temp
°C
App
Temp
°C
Dew
Point
Rel
Hum
%
Delta-T
°C
Wind Press
QNH
hPa
Press
MSL
hPa
Rain
since 9 am
mm
Dir
 
Spd
km/h
Gust
km/h
Spd
kts
Gust
kts
23/11:30pm 23.9 27.4 21.8 88 1.4 SSE 6 7 3 4 1009.1 - 6.0
23/11:00pm 23.8 27.4 21.3 86 1.7 SE 4 9 2 5 1009.2 - 6.0
23/10:30pm 24.0 27.1 21.5 86 1.7 SSE 7 9 4 5 1009.0 - 6.0

Other Formats:

Comma delimited format used in spreadsheet applications
http://www.bom.gov.au/fwo/IDQ60801/IDQ60801.95286.axf

JavaScript Object Notation format (JSON) in row-major order
http://www.bom.gov.au/fwo/IDQ60801/IDQ60801.95286.json